Time;durP1;ratioP1;P1;durP2;ratioP2;P2;SDS_P1;SDS_P2;PMS_P1;PMS_P2;Temp;Humidity;BMP_temperature;BMP_pressure;BME280_temperature;BME280_humidity;BME280_pressure;Samples;Min_cycle;Max_cycle;Signal;HPM_P1;HPM_P2
2023/03/16 00:00:15;;;;;;;5.57;2.60;;;4.60;99.90;;;4.34;93.22;101401.69;5154661;28;20061;-69
2023/03/16 00:02:49;;;;;;;4.90;2.00;;;4.60;99.90;;;4.34;93.36;101399.13;5153149;28;20098;-69
2023/03/16 00:05:24;;;;;;;5.63;2.38;;;4.60;99.90;;;4.30;93.40;101389.34;5153280;28;20038;-69
2023/03/16 00:07:58;;;;;;;6.63;2.65;;;4.60;99.90;;;4.25;93.61;101391.63;5162151;28;20134;-68
2023/03/16 00:10:33;;;;;;;4.47;2.40;;;4.60;99.90;;;4.19;93.57;101383.47;5149903;28;20035;-69
2023/03/16 00:13:06;;;;;;;6.55;2.72;;;4.50;99.90;;;4.19;93.45;101382.56;5150831;28;20510;-69
2023/03/16 00:15:38;;;;;;;4.75;2.13;;;4.50;99.90;;;4.17;93.86;101378.97;5154837;28;20050;-69
2023/03/16 00:18:10;;;;;;;7.10;2.63;;;4.50;99.90;;;4.15;94.30;101378.88;5154920;28;20046;-69
2023/03/16 00:20:42;;;;;;;5.85;2.33;;;4.50;99.90;;;4.14;94.10;101376.19;5155699;28;20495;-69
2023/03/16 00:23:14;;;;;;;3.95;2.35;;;4.50;99.90;;;4.09;94.51;101376.75;5153235;28;20050;-69
2023/03/16 00:25:48;;;;;;;4.78;2.10;;;4.40;99.90;;;4.09;94.33;101376.75;5151385;28;20043;-69
2023/03/16 00:28:21;;;;;;;5.03;2.03;;;4.40;99.90;;;4.04;94.43;101373.00;5157973;28;20054;-69
2023/03/16 00:30:57;;;;;;;6.57;2.60;;;4.40;99.90;;;4.04;94.30;101372.06;5165569;28;20046;-69
2023/03/16 00:33:33;;;;;;;4.95;2.03;;;4.40;99.90;;;4.09;94.58;101370.72;5151386;28;20039;-69
2023/03/16 00:36:08;;;;;;;6.53;2.55;;;4.40;99.90;;;4.09;94.77;101365.53;5151643;28;20435;-68
2023/03/16 00:38:44;;;;;;;6.22;2.33;;;4.40;99.90;;;4.09;94.44;101360.38;5148619;28;20053;-69
2023/03/16 00:41:18;;;;;;;7.55;2.50;;;4.40;99.90;;;4.04;94.44;101356.59;5151825;28;20043;-69
2023/03/16 00:43:52;;;;;;;5.90;2.25;;;4.40;99.90;;;4.02;94.67;101351.31;5159157;28;20051;-69
2023/03/16 00:46:25;;;;;;;5.72;2.28;;;4.40;99.90;;;3.96;94.39;101347.41;5144361;28;20053;-69
2023/03/16 00:48:57;;;;;;;7.63;2.47;;;4.30;99.90;;;3.97;94.46;101350.09;5145804;28;20047;-69
2023/03/16 00:51:32;;;;;;;5.30;2.25;;;4.30;99.90;;;3.95;94.75;101353.38;5145259;28;20144;-69
2023/03/16 00:54:04;;;;;;;6.13;2.45;;;4.30;99.90;;;3.96;94.63;101350.91;5162330;28;20069;-68
2023/03/16 00:56:39;;;;;;;5.47;2.20;;;4.30;99.90;;;3.98;95.24;101346.75;5150784;28;20070;-68
2023/03/16 00:59:11;;;;;;;4.50;2.17;;;4.30;99.90;;;3.99;94.81;101353.72;5150396;28;20053;-68
2023/03/16 01:01:45;;;;;;;8.20;2.53;;;4.30;99.90;;;3.96;94.17;101353.47;5153407;28;20053;-69
2023/03/16 01:04:18;;;;;;;5.80;2.17;;;4.30;99.90;;;3.98;94.23;101354.50;5152012;28;20054;-68
2023/03/16 01:06:51;;;;;;;7.47;2.22;;;4.30;99.90;;;3.99;94.58;101352.81;5149288;28;20047;-68
2023/03/16 01:09:23;;;;;;;5.53;2.60;;;4.30;99.90;;;3.94;94.22;101359.31;5150880;28;20455;-68
2023/03/16 01:11:58;;;;;;;5.38;2.15;;;4.30;99.90;;;3.93;94.18;101363.59;5166679;28;20042;-69
2023/03/16 01:14:30;;;;;;;3.70;2.03;;;4.30;99.90;;;3.90;94.34;101353.03;5160285;28;20048;-68
2023/03/16 01:17:03;;;;;;;5.15;2.30;;;4.30;99.90;;;3.96;94.61;101362.91;5161517;28;20126;-69
2023/03/16 01:19:37;;;;;;;5.70;2.00;;;4.30;99.90;;;3.98;94.27;101357.09;5180041;28;20042;-68
2023/03/16 01:22:10;;;;;;;5.07;1.95;;;4.30;99.90;;;4.00;94.41;101362.34;5173342;28;20511;-69
2023/03/16 01:24:45;;;;;;;7.13;3.00;;;4.40;99.90;;;3.95;94.13;101354.25;5159818;28;20498;-70
2023/03/16 01:27:19;;;;;;;5.25;2.13;;;4.40;99.90;;;3.93;94.40;101342.94;5168064;28;20541;-68
2023/03/16 01:29:51;;;;;;;7.00;2.38;;;4.30;99.90;;;3.89;94.78;101340.94;5178124;28;20117;-69
2023/03/16 01:32:23;;;;;;;4.25;2.20;;;4.30;99.90;;;3.83;94.71;101339.63;5154817;28;20061;-68
2023/03/16 01:34:55;;;;;;;6.05;2.00;;;4.20;99.90;;;3.83;94.97;101330.19;5162392;28;20057;-68
2023/03/16 01:37:28;;;;;;;5.10;2.20;;;4.30;99.90;;;3.78;94.94;101318.66;5157918;28;20093;-68
2023/03/16 01:40:07;;;;;;;3.85;1.73;;;4.20;99.90;;;3.79;95.32;101320.47;5155490;28;20133;-69
2023/03/16 01:42:58;;;;;;;5.50;2.30;;;4.20;99.90;;;3.82;94.90;101312.94;5169341;28;20066;-68
2023/03/16 01:46:16;;;;;;;4.88;2.60;;;4.20;99.90;;;3.79;95.26;101312.72;5163820;28;20527;-69
2023/03/16 01:49:07;;;;;;;4.82;2.50;;;4.20;99.90;;;3.83;95.55;101313.81;5170401;28;20470;-68
2023/03/16 01:51:44;;;;;;;3.47;1.95;;;4.20;99.90;;;3.87;95.17;101311.56;5155235;28;20862;-69
2023/03/16 01:54:23;;;;;;;6.03;2.15;;;4.30;99.90;;;3.85;94.47;101305.44;5164552;28;20050;-68
2023/03/16 01:57:03;;;;;;;4.18;1.98;;;4.30;99.90;;;3.90;94.42;101305.72;5161132;28;20045;-69
2023/03/16 01:59:43;;;;;;;6.10;2.40;;;4.30;99.90;;;3.90;94.40;101296.28;5163911;28;20039;-68
2023/03/16 02:02:20;;;;;;;7.32;2.10;;;4.30;99.90;;;3.92;94.21;101299.00;5164613;28;20132;-70
2023/03/16 02:04:58;;;;;;;4.47;1.70;;;4.30;99.90;;;3.89;93.77;101284.19;5169097;28;20066;-69
2023/03/16 02:07:35;;;;;;;4.85;2.30;;;4.30;99.90;;;3.92;93.80;101281.84;5164222;28;20085;-69
2023/03/16 02:10:11;;;;;;;3.83;1.88;;;4.30;99.90;;;3.90;93.71;101274.78;5156017;28;20054;-69
2023/03/16 02:12:45;;;;;;;3.88;1.75;;;4.30;99.90;;;3.87;93.84;101265.16;5167541;28;20101;-69
2023/03/16 02:15:18;;;;;;;5.13;1.85;;;4.30;99.90;;;3.87;94.01;101274.56;5166980;28;20051;-69
2023/03/16 02:17:51;;;;;;;4.28;1.98;;;4.30;99.90;;;3.86;93.93;101265.94;5167713;28;20042;-69
2023/03/16 02:20:37;;;;;;;5.30;1.55;;;4.30;99.90;;;3.83;94.06;101260.56;5159552;28;20046;-69
2023/03/16 02:23:17;;;;;;;3.95;1.95;;;4.30;99.90;;;3.86;93.94;101260.78;5159907;28;20082;-69
2023/03/16 02:26:00;;;;;;;3.58;1.83;;;4.20;99.90;;;3.88;93.98;101259.19;5155365;28;20050;-68
2023/03/16 02:28:46;;;;;;;4.80;1.80;;;4.30;99.90;;;3.88;94.09;101254.03;5152570;28;20099;-69
2023/03/16 02:31:22;;;;;;;4.05;1.88;;;4.30;99.90;;;3.87;94.12;101260.00;5154031;28;20061;-69
2023/03/16 02:33:56;;;;;;;5.50;2.17;;;4.20;99.90;;;3.85;93.53;101271.91;5156215;28;20050;-68
2023/03/16 02:36:30;;;;;;;4.88;2.05;;;4.30;99.90;;;3.86;94.28;101265.94;5160635;28;20460;-69
2023/03/16 02:39:02;;;;;;;4.85;2.20;;;4.20;99.90;;;3.85;93.99;101260.66;5159467;28;20062;-69
2023/03/16 02:41:38;;;;;;;4.60;2.10;;;4.30;99.90;;;3.88;93.98;101250.56;5148233;28;20129;-69
2023/03/16 02:44:15;;;;;;;4.70;2.00;;;4.30;99.90;;;3.86;93.75;101249.56;5164287;28;20038;-69
2023/03/16 02:46:52;;;;;;;4.72;2.10;;;4.30;99.90;;;3.80;93.49;101238.03;5157768;28;20042;-69
2023/03/16 02:49:30;;;;;;;6.07;2.10;;;4.20;99.90;;;3.79;93.96;101235.38;5161297;28;20057;-69
2023/03/16 02:52:03;;;;;;;3.47;1.95;;;4.20;99.90;;;3.81;93.81;101241.50;5151869;28;20129;-69
2023/03/16 02:54:36;;;;;;;3.90;1.85;;;4.20;99.90;;;3.82;93.84;101238.13;5151347;28;20419;-68
2023/03/16 02:57:09;;;;;;;3.53;1.95;;;4.20;99.90;;;3.87;93.80;101244.50;5151765;28;20051;-68
2023/03/16 02:59:42;;;;;;;4.22;2.00;;;4.20;99.90;;;3.86;93.87;101247.00;5155763;28;20046;-68
2023/03/16 03:02:17;;;;;;;4.82;1.90;;;4.20;99.90;;;3.81;93.77;101232.09;5155630;28;20046;-69
2023/03/16 03:04:53;;;;;;;4.43;1.83;;;4.20;99.90;;;3.80;93.58;101237.16;5156152;28;20049;-68
2023/03/16 03:07:30;;;;;;;3.17;1.70;;;4.20;99.90;;;3.75;93.41;101225.63;5161565;28;20053;-68
2023/03/16 03:10:11;;;;;;;5.10;2.17;;;4.20;99.90;;;3.73;93.76;101229.78;5152968;28;20125;-69
2023/03/16 03:12:48;;;;;;;4.32;1.80;;;4.20;99.90;;;3.77;93.95;101224.03;5163459;28;20105;-68
2023/03/16 03:15:20;;;;;;;6.47;1.85;;;4.20;99.90;;;3.78;93.63;101223.22;5155913;28;20559;-68
2023/03/16 03:18:04;;;;;;;4.45;1.88;;;4.20;99.90;;;3.75;93.83;101217.88;5155314;28;20066;-69
2023/03/16 03:20:37;;;;;;;4.80;1.85;;;4.10;99.90;;;3.80;93.97;101222.56;5152672;28;20412;-69
2023/03/16 03:23:09;;;;;;;3.63;1.75;;;4.20;99.90;;;3.83;93.91;101216.72;5159061;28;20117;-69
2023/03/16 03:25:41;;;;;;;6.18;2.15;;;4.20;99.90;;;3.84;93.85;101222.75;5150894;28;20377;-68
2023/03/16 03:28:14;;;;;;;5.43;2.10;;;4.20;99.90;;;3.84;93.81;101231.38;5153006;28;20125;-68
2023/03/16 03:30:46;;;;;;;4.38;1.75;;;4.20;99.90;;;3.85;93.57;101230.63;5166425;28;20507;-69
2023/03/16 03:33:21;;;;;;;5.28;1.98;;;4.20;99.90;;;3.82;93.50;101230.41;5156128;28;20055;-69
2023/03/16 03:35:58;;;;;;;3.67;1.77;;;4.20;99.90;;;3.81;93.60;101221.78;5162635;28;20058;-68
2023/03/16 03:38:31;;;;;;;3.63;1.83;;;4.20;99.90;;;3.82;93.71;101217.50;5151797;28;20038;-69
2023/03/16 03:41:06;;;;;;;6.90;2.15;;;4.20;99.90;;;3.85;93.53;101209.06;5150861;28;20039;-68
2023/03/16 03:43:40;;;;;;;;;;;4.20;99.90;;;3.83;93.36;101208.97;5151305;28;20137;-68
2023/03/16 03:46:18;;;;;;;6.30;2.15;;;4.20;99.90;;;3.80;93.34;101211.38;5175941;28;19922;-69
2023/03/16 03:48:53;;;;;;;6.28;2.03;;;4.20;99.90;;;3.81;93.42;101215.72;5165074;28;20051;-69
2023/03/16 03:51:25;;;;;;;5.05;1.88;;;4.20;99.90;;;3.83;94.03;101216.72;5152496;28;20736;-68
2023/03/16 03:54:04;;;;;;;3.28;1.50;;;4.20;99.90;;;3.81;93.65;101210.56;5151821;28;20066;-69
2023/03/16 03:57:14;;;;;;;5.07;1.95;;;4.20;99.90;;;3.86;93.62;101205.72;5147882;28;20137;-68
2023/03/16 03:59:46;;;;;;;3.80;1.63;;;4.20;99.90;;;3.85;93.37;101203.91;5155434;28;20069;-68
2023/03/16 04:02:19;;;;;;;4.68;2.00;;;4.20;99.90;;;3.86;93.30;101205.72;5154637;28;20045;-68
2023/03/16 04:04:59;;;;;;;3.45;1.90;;;4.20;99.90;;;3.88;93.35;101205.03;5149875;28;20049;-68
2023/03/16 04:07:34;;;;;;;3.90;1.73;;;4.20;99.90;;;3.89;93.16;101211.97;5155472;28;20582;-69
2023/03/16 04:10:12;;;;;;;6.53;2.30;;;4.30;99.90;;;3.88;93.09;101211.88;5154352;28;20054;-68
2023/03/16 04:12:47;;;;;;;6.45;2.10;;;4.30;99.90;;;3.82;93.20;101209.78;5170762;28;20460;-69
2023/03/16 04:15:21;;;;;;;4.25;2.00;;;4.20;99.90;;;3.79;93.14;101210.47;5160885;28;20050;-68
2023/03/16 04:18:13;;;;;;;19.95;7.05;;;4.20;99.90;;;3.79;93.21;101209.56;5152464;28;20062;-69
2023/03/16 04:20:48;;;;;;;23.02;9.75;;;4.20;99.90;;;3.79;93.35;101209.56;5150780;28;20503;-69
2023/03/16 04:23:26;;;;;;;16.08;6.30;;;4.20;99.90;;;3.83;93.92;101210.66;5152837;28;20129;-68
2023/03/16 04:25:59;;;;;;;11.70;4.65;;;4.20;99.90;;;3.82;93.85;101209.78;5156194;28;20034;-69
2023/03/16 04:28:32;;;;;;;14.45;6.47;;;4.20;99.90;;;3.83;94.02;101202.94;5154852;28;20108;-68
2023/03/16 04:31:07;;;;;;;13.00;4.78;;;4.20;99.90;;;3.77;93.61;101185.34;5164444;28;20074;-68
2023/03/16 04:33:44;;;;;;;10.98;4.85;;;4.20;99.90;;;3.72;93.68;101192.78;5163122;28;20049;-68
2023/03/16 04:36:18;;;;;;;15.13;5.50;;;4.20;99.90;;;3.72;94.48;101189.31;5152896;28;20145;-69
2023/03/16 04:38:51;;;;;;;15.02;6.55;;;4.10;99.90;;;3.71;94.58;101182.34;5154802;28;20058;-68
2023/03/16 04:41:25;;;;;;;14.50;4.70;;;4.10;99.90;;;3.74;94.63;101180.88;5161499;28;20046;-67
2023/03/16 04:44:12;;;;;;;7.68;3.30;;;4.10;99.90;;;3.80;94.48;101181.31;5155230;28;20515;-68
2023/03/16 04:46:45;;;;;;;7.65;3.20;;;4.10;99.90;;;3.83;94.45;101184.88;5153116;28;20046;-69
2023/03/16 04:49:18;;;;;;;5.18;2.60;;;4.20;99.90;;;3.86;94.56;101175.66;5160781;28;20050;-69
2023/03/16 04:51:54;;;;;;;6.43;2.88;;;4.20;99.90;;;3.86;94.54;101170.50;5150150;28;20495;-69
2023/03/16 04:54:28;;;;;;;7.20;3.35;;;4.20;99.90;;;3.78;94.61;101166.50;5151538;28;20500;-68
2023/03/16 04:57:02;;;;;;;7.60;3.75;;;4.20;99.90;;;3.78;95.04;101161.34;5155659;28;20765;-68
2023/03/16 04:59:44;;;;;;;5.70;2.58;;;4.20;99.90;;;3.81;95.02;101172.78;5153866;28;20042;-69
2023/03/16 05:02:36;;;;;;;8.52;3.30;;;4.20;99.90;;;3.81;95.04;101164.16;5154197;28;20101;-68
2023/03/16 05:05:10;;;;;;;8.02;3.15;;;4.20;99.90;;;3.86;95.40;101165.34;5153177;28;20511;-68
2023/03/16 05:07:50;;;;;;;6.57;2.45;;;4.20;99.90;;;3.88;95.35;101163.75;5145753;28;20137;-69
2023/03/16 05:10:24;;;;;;;7.70;2.78;;;4.20;99.90;;;3.96;95.38;101161.69;5152305;28;20109;-69
2023/03/16 05:12:59;;;;;;;6.57;2.38;;;4.30;99.90;;;4.01;95.21;101161.22;5238568;23;20047;-68
2023/03/16 05:15:32;;;;;;;6.20;2.72;;;4.30;99.90;;;4.07;95.13;101165.88;5141961;28;20050;-69
2023/03/16 05:18:23;;;;;;;6.57;2.83;;;4.40;99.90;;;4.04;94.85;101158.84;5146657;28;20052;-70
2023/03/16 05:20:59;;;;;;;7.82;2.78;;;4.40;99.90;;;4.08;95.17;101163.41;5162078;28;20046;-69
2023/03/16 05:23:40;;;;;;;7.38;2.40;;;4.40;99.90;;;4.07;95.05;101171.94;5161735;28;20057;-69
2023/03/16 05:26:15;;;;;;;5.00;2.20;;;4.40;99.90;;;4.09;95.25;101162.59;5163047;28;20039;-66
2023/03/16 05:28:47;;;;;;;7.22;2.42;;;4.40;99.90;;;4.13;94.97;101155.97;5149176;28;20053;-70
2023/03/16 05:31:25;;;;;;;7.40;2.40;;;4.40;99.90;;;4.16;95.16;101155.28;5158908;28;20050;-70
2023/03/16 05:34:01;;;;;;;7.30;2.88;;;4.40;99.90;;;4.15;95.16;101162.13;5157950;28;20047;-70
2023/03/16 05:36:34;;;;;;;4.28;2.33;;;4.50;99.90;;;4.18;94.74;101166.63;5159929;28;20101;-70
2023/03/16 05:39:13;;;;;;;7.18;2.47;;;4.50;99.90;;;4.20;94.87;101167.59;5157735;28;20039;-70
2023/03/16 05:41:49;;;;;;;6.72;2.83;;;4.50;99.90;;;4.17;94.41;101163.09;5141903;28;20062;-69
2023/03/16 05:44:21;;;;;;;6.28;2.58;;;4.50;99.90;;;4.21;94.54;101164.22;5152294;28;20058;-69
2023/03/16 05:47:21;;;;;;;4.45;2.58;;;4.50;99.90;;;4.21;94.77;101166.81;5135308;28;20117;-70
2023/03/16 05:49:59;;;;;;;6.28;2.90;;;4.50;99.90;;;4.25;94.51;101166.22;5156064;28;20051;-69
2023/03/16 05:52:39;;;;;;;4.95;2.33;;;4.50;99.90;;;4.27;94.85;101160.34;5158064;28;20071;-71
2023/03/16 05:55:20;;;;;;;6.32;2.75;;;4.60;99.90;;;4.32;94.90;101168.41;5150484;28;20058;-70
2023/03/16 05:58:00;;;;;;;5.80;2.50;;;4.60;99.90;;;4.29;94.85;101153.59;5163311;28;20814;-70
2023/03/16 06:00:33;;;;;;;7.35;3.63;;;4.60;99.90;;;4.25;94.70;101161.94;5164608;28;20043;-70
2023/03/16 06:03:16;;;;;;;7.95;3.30;;;4.60;99.90;;;4.29;95.01;101168.19;5165831;28;20066;-69
2023/03/16 06:05:49;;;;;;;6.03;3.17;;;4.60;99.90;;;4.28;95.03;101171.56;5161641;28;20050;-68
2023/03/16 06:08:27;;;;;;;5.72;2.58;;;4.60;99.90;;;4.30;95.31;101178.66;5165567;28;20093;-70
2023/03/16 06:11:03;;;;;;;5.00;2.40;;;4.60;99.90;;;4.33;95.24;101165.03;5165829;28;20042;-69
2023/03/16 06:13:36;;;;;;;5.38;2.83;;;4.60;99.90;;;4.34;95.12;101171.97;5165590;28;20105;-70
2023/03/16 06:16:10;;;;;;;5.78;2.80;;;4.60;99.90;;;4.36;94.74;101170.38;5161811;28;20051;-69
2023/03/16 06:18:42;;;;;;;7.45;3.20;;;4.70;99.90;;;4.36;94.72;101175.53;5164693;28;20137;-69
2023/03/16 06:21:16;;;;;;;6.00;2.55;;;4.70;99.90;;;4.34;94.96;101171.97;5166573;28;20040;-69
2023/03/16 06:23:50;;;;;;;6.85;2.92;;;4.70;99.90;;;4.37;94.60;101177.34;5149677;28;20410;-71
2023/03/16 06:26:24;;;;;;;6.82;2.67;;;4.70;99.90;;;4.43;94.65;101175.16;5161339;28;20054;-70
2023/03/16 06:28:57;;;;;;;5.82;3.15;;;4.70;99.90;;;4.51;94.67;101166.22;5159971;28;20038;-70
2023/03/16 06:31:32;;;;;;;8.15;3.20;;;4.80;99.90;;;4.54;94.46;101174.16;5161129;28;20050;-72
2023/03/16 06:34:05;;;;;;;6.55;2.72;;;4.80;99.90;;;4.53;94.53;101174.97;5151094;28;20038;-70
2023/03/16 06:36:38;;;;;;;7.35;3.47;;;4.80;99.90;;;4.56;94.29;101177.75;5160800;28;20053;-70
2023/03/16 06:39:14;;;;;;;7.57;3.33;;;4.90;99.90;;;4.67;94.21;101182.72;5152474;28;20045;-70
2023/03/16 06:41:49;;;;;;;8.63;3.88;;;4.90;99.90;;;4.74;94.16;101182.31;5158030;28;20027;-70
2023/03/16 06:44:23;;;;;;;11.30;3.85;;;5.00;99.90;;;4.79;94.32;101173.16;5156744;28;20423;-69
2023/03/16 06:47:08;;;;;;;10.93;4.10;;;5.00;99.90;;;4.86;94.14;101178.81;5166117;28;20384;-70
2023/03/16 06:49:40;;;;;;;7.40;3.25;;;5.10;99.90;;;5.02;94.16;101175.53;5166108;28;20038;-71
2023/03/16 06:52:20;;;;;;;6.55;3.17;;;5.20;99.90;;;5.49;94.02;101171.50;5177053;28;20153;-71
2023/03/16 06:54:52;;;;;;;7.55;3.70;;;5.50;99.90;;;5.66;92.01;101176.00;5160524;28;20117;-70
2023/03/16 06:57:28;;;;;;;9.70;3.47;;;5.70;99.90;;;5.56;91.08;101184.91;5161527;28;20061;-68
2023/03/16 07:00:02;;;;;;;8.75;3.85;;;5.70;99.90;;;5.44;91.49;101189.31;5176971;28;20046;-70
2023/03/16 07:02:35;;;;;;;6.50;3.08;;;5.70;99.90;;;5.36;91.93;101195.72;5155586;28;20553;-70
2023/03/16 07:05:11;;;;;;;8.60;3.60;;;5.60;99.90;;;5.31;92.35;101192.84;5163485;28;20058;-62
2023/03/16 07:07:44;;;;;;;7.55;3.33;;;5.60;99.90;;;5.29;92.25;101198.72;5163742;28;20046;-62
2023/03/16 07:10:19;;;;;;;8.25;3.75;;;5.60;99.90;;;5.27;92.62;101192.53;5159365;28;20430;-61
2023/03/16 07:12:54;;;;;;;8.40;3.55;;;5.50;99.90;;;5.24;92.93;101194.94;5155833;28;20093;-62
2023/03/16 07:15:26;;;;;;;7.53;3.33;;;5.50;99.90;;;5.23;92.95;101198.34;5159286;28;20045;-60
2023/03/16 07:18:01;;;;;;;9.70;3.55;;;5.50;99.90;;;5.21;93.08;101193.06;5160274;28;20541;-61
2023/03/16 07:20:34;;;;;;;6.57;3.20;;;5.50;99.90;;;5.18;93.63;101204.09;5157237;28;20045;-61
2023/03/16 07:23:11;;;;;;;8.60;3.97;;;5.40;99.90;;;5.16;93.61;101203.13;5159339;28;20432;-61
2023/03/16 07:25:45;;;;;;;7.70;3.95;;;5.40;99.90;;;5.25;94.38;101207.06;5151730;28;20053;-61
2023/03/16 07:28:20;;;;;;;8.20;3.85;;;5.50;99.90;;;5.25;94.09;101204.50;5155889;28;20523;-61
2023/03/16 07:30:52;;;;;;;8.55;4.25;;;5.50;99.90;;;5.34;93.88;101194.72;5149864;28;20038;-61
2023/03/16 07:33:24;;;;;;;11.13;4.18;;;5.60;99.90;;;5.48;93.85;101201.66;5154916;28;20047;-62
2023/03/16 07:35:57;;;;;;;8.68;3.63;;;5.70;99.90;;;5.59;93.47;101185.06;5157554;28;20068;-61
2023/03/16 07:38:29;;;;;;;10.77;4.63;;;5.80;99.90;;;5.64;92.53;101196.59;5165096;28;20050;-61
2023/03/16 07:41:01;;;;;;;13.27;3.97;;;5.80;99.90;;;5.73;92.98;101199.72;5159707;28;20054;-62
2023/03/16 07:43:35;;;;;;;11.20;3.88;;;5.90;99.90;;;5.77;92.81;101194.75;5155122;28;20075;-61
2023/03/16 07:46:07;;;;;;;6.88;3.05;;;6.00;99.90;;;5.90;92.31;101193.00;5176656;28;20085;-58
2023/03/16 07:48:42;;;;;;;9.73;4.40;;;6.00;99.90;;;5.95;91.87;101186.44;5178429;28;20547;-61
2023/03/16 07:51:14;;;;;;;9.90;4.22;;;6.10;99.90;;;6.23;91.93;101194.13;5151628;28;20113;-59
2023/03/16 07:53:50;;;;;;;8.68;3.83;;;6.30;99.90;;;6.40;91.28;101181.28;5160507;28;20046;-59
2023/03/16 07:56:32;;;;;;;8.18;3.42;;;6.50;99.90;;;6.47;90.35;101188.59;5161714;28;20060;-61
2023/03/16 07:59:08;;;;;;;7.80;3.63;;;6.50;99.90;;;6.62;90.08;101192.03;5162398;28;20050;-59
2023/03/16 08:01:42;;;;;;;11.15;4.40;;;6.70;99.90;;;6.70;89.91;101177.81;5159814;28;20054;-59
2023/03/16 08:04:14;;;;;;;8.98;3.67;;;6.70;99.90;;;6.73;89.59;101175.41;5162479;28;20045;-61
2023/03/16 08:06:47;;;;;;;7.93;3.80;;;6.80;99.90;;;6.75;88.81;101176.38;5161626;28;20046;-59
2023/03/16 08:09:20;;;;;;;9.63;3.55;;;6.90;99.90;;;6.70;88.66;101177.81;5146653;28;20511;-59
2023/03/16 08:11:52;;;;;;;9.65;3.92;;;6.80;99.90;;;6.76;88.77;101172.97;5156326;28;20045;-62
2023/03/16 08:14:26;;;;;;;10.82;4.40;;;6.90;99.90;;;6.88;89.05;101172.78;5162420;28;20154;-59
2023/03/16 08:17:12;;;;;;;7.35;3.78;;;6.90;99.90;;;6.96;88.89;101171.50;5162634;28;20181;-60
2023/03/16 08:19:44;;;;;;;8.75;4.10;;;7.00;99.90;;;7.09;88.54;101167.88;5162111;28;20089;-60
2023/03/16 08:22:17;;;;;;;9.65;4.07;;;7.10;99.90;;;7.30;88.60;101170.72;5161666;28;20050;-60
2023/03/16 08:24:53;;;;;;;8.07;3.35;;;7.20;99.90;;;7.36;86.88;101184.03;5162039;28;20078;-60
2023/03/16 08:27:28;;;;;;;9.13;4.18;;;7.30;99.90;;;7.34;86.38;101180.47;5154334;28;20047;-59
2023/03/16 08:30:06;;;;;;;9.13;3.63;;;7.40;99.90;;;7.30;86.58;101186.28;5162394;28;20402;-58
2023/03/16 08:32:41;;;;;;;8.40;3.90;;;7.40;99.90;;;7.58;87.57;101186.97;5162382;28;20096;-61
2023/03/16 08:35:16;;;;;;;8.23;3.28;;;7.60;99.90;;;7.67;86.56;101191.75;5178884;28;20054;-59
2023/03/16 08:37:49;;;;;;;8.88;3.97;;;7.70;99.90;;;7.74;86.14;101187.78;5178688;28;20469;-58
2023/03/16 08:40:23;;;;;;;9.57;3.88;;;7.70;99.90;;;7.92;88.07;101182.66;5146328;28;20507;-59
2023/03/16 08:42:56;;;;;;;8.10;3.80;;;7.90;99.90;;;7.92;86.98;101186.13;5141777;28;20038;-59
2023/03/16 08:45:30;;;;;;;6.15;1.92;;;7.90;99.90;;;8.68;100.00;101176.13;5142033;28;20110;-60
2023/03/16 08:48:02;;;;;;;6.75;3.25;;;8.90;99.90;;;9.66;96.37;101171.16;5156264;28;20514;-58
2023/03/16 08:50:35;;;;;;;7.93;3.75;;;9.80;99.90;;;9.80;79.99;101174.38;5162201;28;20137;-57
2023/03/16 08:53:08;;;;;;;6.88;3.38;;;9.90;95.80;;;9.74;79.27;101171.50;5163366;28;20051;-59
2023/03/16 08:55:41;;;;;;;6.15;3.13;;;9.90;95.70;;;9.60;79.52;101159.59;5163401;28;20046;-59
2023/03/16 08:58:14;;;;;;;6.78;3.30;;;9.70;95.80;;;9.28;78.14;101155.53;5163181;28;20074;-58
2023/03/16 09:00:47;;;;;;;7.10;3.53;;;9.40;94.80;;;8.98;78.78;101174.97;5164148;28;20038;-60
2023/03/16 09:03:20;;;;;;;7.45;3.20;;;9.10;95.00;;;8.84;80.15;101165.63;5163679;28;20145;-58
2023/03/16 09:05:52;;;;;;;8.68;3.58;;;9.00;95.90;;;8.70;80.87;101161.50;5163883;28;20074;-61
2023/03/16 09:08:24;;;;;;;7.18;3.40;;;8.80;96.40;;;8.59;80.87;101166.16;5163697;28;20050;-59
2023/03/16 09:11:01;;;;;;;5.22;2.80;;;8.70;96.60;;;8.56;81.17;101159.94;5163839;28;20056;-60
2023/03/16 09:13:34;;;;;;;5.20;2.13;;;8.60;96.70;;;8.55;81.07;101177.25;5163609;28;20038;-58
2023/03/16 09:16:09;;;;;;;5.15;2.40;;;8.60;96.90;;;8.63;80.94;101169.81;5163042;28;20050;-58
2023/03/16 09:18:42;;;;;;;5.20;2.65;;;8.60;96.90;;;8.63;80.41;101164.63;5164345;28;20050;-59
2023/03/16 09:21:14;;;;;;;4.90;2.53;;;8.60;96.50;;;8.62;80.73;101160.25;5163598;28;20066;-59
2023/03/16 09:23:46;;;;;;;5.90;2.95;;;8.60;96.70;;;8.60;80.21;101152.34;5163990;28;20046;-60
2023/03/16 09:26:19;;;;;;;5.82;3.28;;;8.60;96.60;;;8.53;80.66;101149.38;5163595;28;20044;-58
2023/03/16 09:28:51;;;;;;;6.22;3.10;;;8.60;96.60;;;8.53;80.79;101150.28;5163794;28;20053;-59
2023/03/16 09:31:25;;;;;;;5.53;3.10;;;8.60;96.70;;;8.73;81.46;101150.34;5163592;28;20455;-60
2023/03/16 09:33:57;;;;;;;5.93;2.90;;;8.70;97.10;;;8.91;80.06;101159.03;5165483;28;20070;-58
2023/03/16 09:36:29;;;;;;;5.75;3.08;;;8.80;96.50;;;9.15;79.70;101167.97;5167769;28;20078;-59
2023/03/16 09:39:02;;;;;;;6.15;3.10;;;9.00;96.40;;;9.29;79.57;101163.41;5167596;28;20050;-60
2023/03/16 09:41:46;;;;;;;6.05;3.13;;;9.10;96.20;;;9.48;78.86;101154.72;5167491;28;20385;-59
2023/03/16 09:44:35;;;;;;;4.90;2.42;;;9.30;95.90;;;9.98;84.59;101143.94;5157159;28;20042;-59
2023/03/16 09:47:12;;;;;;;5.80;2.80;;;9.80;99.90;;;10.14;79.82;101144.56;5159848;28;20050;-58
2023/03/16 09:49:48;;;;;;;4.63;2.75;;;10.10;96.70;;;10.30;78.27;101141.78;5163693;28;20042;-58
2023/03/16 09:52:30;;;;;;;5.68;2.78;;;10.20;95.90;;;10.38;75.92;101143.00;5166535;28;20103;-58
2023/03/16 09:55:09;;;;;;;5.45;3.03;;;10.30;94.00;;;10.29;74.78;101138.28;5146812;28;20105;-57
2023/03/16 09:57:45;;;;;;;7.00;3.08;;;10.30;93.20;;;9.86;74.60;101132.97;5146453;28;20085;-57
2023/03/16 10:00:22;;;;;;;5.93;2.85;;;10.00;92.30;;;9.63;75.79;101128.47;5146703;28;20046;-57
2023/03/16 10:03:21;;;;;;;4.70;2.60;;;9.80;92.70;;;9.48;75.30;101126.09;5146216;28;20138;-57
2023/03/16 10:05:59;;;;;;;4.60;2.50;;;9.70;92.60;;;9.29;75.93;101133.91;5146466;28;20046;-58
2023/03/16 10:08:39;;;;;;;4.28;2.58;;;9.40;92.70;;;9.22;76.76;101130.13;5145196;28;20054;-57
2023/03/16 10:11:25;;;;;;;3.97;2.28;;;9.30;93.30;;;9.41;79.09;101127.53;5146355;28;20070;-57
2023/03/16 10:14:06;;;;;;;6.88;2.58;;;9.40;95.50;;;9.53;77.33;101122.00;5146321;28;20047;-57
2023/03/16 10:16:43;;;;;;;4.80;2.30;;;9.50;94.20;;;9.59;76.22;101121.38;5146111;28;20057;-58
2023/03/16 10:19:22;;;;;;;5.70;2.58;;;9.60;93.50;;;9.53;76.57;101111.59;5146155;28;20120;-58
2023/03/16 10:21:58;;;;;;;8.15;2.50;;;9.50;93.60;;;9.40;76.68;101120.56;5144774;28;20137;-57
2023/03/16 10:24:43;;;;;;;3.78;2.13;;;9.40;93.40;;;9.45;77.96;101119.06;5146006;28;20562;-58
2023/03/16 10:27:25;;;;;;;4.47;2.35;;;9.40;94.20;;;9.40;77.25;101117.94;5145866;28;20056;-57
2023/03/16 10:30:00;;;;;;;7.28;2.38;;;9.50;94.30;;;9.41;77.15;101111.91;5145813;28;20047;-57
2023/03/16 10:32:35;;;;;;;5.03;2.58;;;9.50;93.90;;;9.42;77.39;101115.41;5145862;28;20055;-57
2023/03/16 10:35:27;;;;;;;5.25;2.40;;;9.40;93.80;;;9.46;77.32;101112.13;5145764;28;20097;-57
2023/03/16 10:37:59;;;;;;;4.60;2.28;;;9.50;94.00;;;9.59;80.64;101110.97;5145716;28;20074;-56
2023/03/16 10:40:32;;;;;;;5.70;2.20;;;9.60;97.40;;;9.77;77.78;101116.94;5145734;28;20047;-57
2023/03/16 10:43:13;;;;;;;3.83;2.08;;;9.70;94.40;;;9.82;77.57;101102.41;5145391;28;20129;-59
2023/03/16 10:45:46;;;;;;;5.85;2.50;;;9.80;94.60;;;9.89;76.58;101091.44;5144630;28;20050;-57
2023/03/16 10:48:20;;;;;;;7.70;2.63;;;9.80;93.40;;;10.02;76.74;101093.72;5144258;28;20051;-58
2023/03/16 10:50:57;;;;;;;5.20;2.53;;;9.90;93.60;;;10.09;77.42;101104.41;5148569;28;20046;-62
2023/03/16 10:53:32;;;;;;;5.07;2.20;;;10.00;94.00;;;10.20;77.21;101106.63;5149217;28;20574;-60
2023/03/16 10:56:12;;;;;;;8.68;1.90;;;10.10;93.90;;;10.57;84.74;101103.84;5149683;28;20042;-59
2023/03/16 10:58:45;;;;;;;5.28;2.10;;;10.50;99.90;;;11.05;79.93;101093.50;5165421;28;20049;-59
2023/03/16 11:01:21;;;;;;;4.40;2.22;;;11.00;96.40;;;11.13;75.73;101085.94;5165359;28;20125;-58